Time;durP1;ratioP1;P1;durP2;ratioP2;P2;SDS_P1;SDS_P2;PMS_P1;PMS_P2;Temp;Humidity;BMP_temperature;BMP_pressure;BME280_temperature;BME280_humidity;BME280_pressure;Samples;Min_cycle;Max_cycle;Signal;HPM_P1;HPM_P2
2021/03/14 00:01:21;;;;;;;7.77;2.27;;;;;;;;;;5036739;28;20406;-50
2021/03/14 00:03:47;;;;;;;7.03;2.73;;;;;;;;;;5035385;28;20434;-51
2021/03/14 00:06:13;;;;;;;4.32;2.72;;;;;;;;;;5035382;28;20456;-50
2021/03/14 00:08:39;;;;;;;2.90;2.60;;;;;;;;;;5033846;28;20203;-52
2021/03/14 00:11:06;;;;;;;2.40;2.20;;;;;;;;;;5035773;28;20405;-51
2021/03/14 00:13:34;;;;;;;3.50;3.03;;;;;;;;;;5031196;28;20185;-52
2021/03/14 00:16:00;;;;;;;3.25;2.20;;;;;;;;;;5035678;28;20195;-54
2021/03/14 00:18:28;;;;;;;3.00;2.10;;;;;;;;;;5035763;28;20218;-50
2021/03/14 00:20:55;;;;;;;3.88;2.85;;;;;;;;;;5035898;28;20773;-52
2021/03/14 00:23:21;;;;;;;3.35;2.40;;;;;;;;;;5033469;28;20171;-51
2021/03/14 00:25:46;;;;;;;10.73;2.20;;;;;;;;;;5034728;28;20573;-50
2021/03/14 00:28:14;;;;;;;4.43;1.87;;;;;;;;;;5035554;28;20902;-51
2021/03/14 00:30:40;;;;;;;3.95;1.90;;;;;;;;;;5035948;28;20399;-51
2021/03/14 00:33:06;;;;;;;3.50;1.80;;;;;;;;;;5035445;28;20528;-52
2021/03/14 00:35:32;;;;;;;2.50;2.25;;;;;;;;;;5035458;28;20497;-53
2021/03/14 00:37:58;;;;;;;4.53;2.00;;;;;;;;;;5034935;28;20207;-55
2021/03/14 00:40:25;;;;;;;4.22;2.05;;;;;;;;;;5034812;28;20812;-54
2021/03/14 00:42:53;;;;;;;2.75;2.00;;;;;;;;;;5034967;28;20175;-50
2021/03/14 00:45:19;;;;;;;2.55;2.00;;;;;;;;;;5032305;28;20178;-51
2021/03/14 00:47:45;;;;;;;5.60;2.53;;;;;;;;;;5033654;28;20230;-53
2021/03/14 00:50:11;;;;;;;5.03;2.23;;;;;;;;;;5034455;28;20402;-54
2021/03/14 00:52:37;;;;;;;9.52;2.97;;;;;;;;;;5035462;28;20406;-51
2021/03/14 00:55:04;;;;;;;2.80;2.23;;;;;;;;;;5035568;28;20227;-50
2021/03/14 00:57:30;;;;;;;5.03;2.53;;;;;;;;;;5035500;28;20410;-51
2021/03/14 00:59:56;;;;;;;6.72;2.97;;;;;;;;;;5035241;28;20219;-57
2021/03/14 01:02:22;;;;;;;5.13;2.77;;;;;;;;;;5034809;28;20195;-48
2021/03/14 01:04:48;;;;;;;6.07;3.05;;;;;;;;;;5035612;28;20441;-48
2021/03/14 01:07:14;;;;;;;6.50;2.90;;;;;;;;;;5035765;28;20207;-50
2021/03/14 01:09:40;;;;;;;8.40;3.10;;;;;;;;;;5034659;28;20560;-50
2021/03/14 01:12:07;;;;;;;4.50;2.67;;;;;;;;;;5035368;28;20220;-51
2021/03/14 01:14:33;;;;;;;7.30;2.83;;;;;;;;;;5030898;28;20187;-52
2021/03/14 01:16:59;;;;;;;8.48;3.72;;;;;;;;;;5035452;28;20647;-50
2021/03/14 01:19:25;;;;;;;9.70;3.20;;;;;;;;;;5034563;28;20191;-51
2021/03/14 01:21:51;;;;;;;6.10;2.63;;;;;;;;;;5034665;28;20402;-50
2021/03/14 01:24:17;;;;;;;5.90;3.33;;;;;;;;;;5033275;28;20470;-50
2021/03/14 01:26:43;;;;;;;4.73;2.90;;;;;;;;;;5033475;28;20458;-50
2021/03/14 01:29:09;;;;;;;8.55;2.90;;;;;;;;;;5034557;28;20432;-50
2021/03/14 01:31:35;;;;;;;9.50;3.60;;;;;;;;;;5035523;28;20536;-50
2021/03/14 01:34:01;;;;;;;5.07;3.77;;;;;;;;;;5035227;28;20756;-50
2021/03/14 01:36:27;;;;;;;4.73;2.80;;;;;;;;;;5034654;28;20425;-52
2021/03/14 01:38:53;;;;;;;3.20;2.65;;;;;;;;;;5034912;28;20422;-56
2021/03/14 01:41:19;;;;;;;6.78;2.95;;;;;;;;;;5034820;28;20246;-50
2021/03/14 01:43:45;;;;;;;7.20;3.75;;;;;;;;;;5034078;28;20233;-52
2021/03/14 01:46:11;;;;;;;6.10;3.40;;;;;;;;;;5031013;28;20205;-51
2021/03/14 01:48:37;;;;;;;4.50;2.90;;;;;;;;;;5034166;28;20474;-51
2021/03/14 01:51:04;;;;;;;3.78;3.45;;;;;;;;;;5035070;28;20182;-51
2021/03/14 01:53:31;;;;;;;7.18;3.90;;;;;;;;;;5035447;28;20164;-49
2021/03/14 01:55:57;;;;;;;7.60;3.95;;;;;;;;;;5034693;28;20277;-50
2021/03/14 01:58:23;;;;;;;5.47;3.55;;;;;;;;;;5033993;28;20205;-50
2021/03/14 02:00:50;;;;;;;6.18;3.63;;;;;;;;;;5033651;28;20188;-54
2021/03/14 02:03:15;;;;;;;6.18;3.78;;;;;;;;;;5033764;28;20190;-52
2021/03/14 02:05:41;;;;;;;3.60;3.30;;;;;;;;;;5033769;28;20179;-54
2021/03/14 02:08:08;;;;;;;8.20;4.10;;;;;;;;;;5034207;28;20434;-53
2021/03/14 02:10:34;;;;;;;7.60;3.80;;;;;;;;;;5033951;28;20476;-53
2021/03/14 02:13:21;;;;;;;7.70;3.45;;;;;;;;;;5033747;28;20169;-51
2021/03/14 02:15:57;;;;;;;3.13;2.83;;;;;;;;;;5030597;28;20655;-52
2021/03/14 02:18:25;;;;;;;4.60;3.22;;;;;;;;;;5032803;28;20198;-50
2021/03/14 02:20:51;;;;;;;4.60;2.80;;;;;;;;;;5032698;28;20175;-54
2021/03/14 02:23:21;;;;;;;8.50;3.00;;;;;;;;;;5034282;28;20198;-51
2021/03/14 02:25:49;;;;;;;5.78;3.40;;;;;;;;;;5034052;28;20557;-53
2021/03/14 02:28:15;;;;;;;10.60;3.83;;;;;;;;;;5037005;28;20185;-51
2021/03/14 02:30:43;;;;;;;6.45;3.78;;;;;;;;;;5038192;28;20164;-51
2021/03/14 02:33:11;;;;;;;10.63;3.88;;;;;;;;;;5034414;28;20184;-50
2021/03/14 02:35:37;;;;;;;10.88;3.58;;;;;;;;;;5037878;28;20175;-52
2021/03/14 02:38:04;;;;;;;5.75;3.85;;;;;;;;;;5037473;28;20302;-53
2021/03/14 02:40:30;;;;;;;11.23;3.60;;;;;;;;;;5037677;28;20172;-50
2021/03/14 02:42:58;;;;;;;10.43;3.47;;;;;;;;;;5038108;28;20246;-50
2021/03/14 02:45:25;;;;;;;12.50;3.67;;;;;;;;;;5037451;28;20172;-51
2021/03/14 02:47:52;;;;;;;4.50;4.10;;;;;;;;;;5033452;28;20179;-53
2021/03/14 02:50:18;;;;;;;8.00;3.50;;;;;;;;;;5037412;28;20225;-54
2021/03/14 02:52:45;;;;;;;4.25;3.50;;;;;;;;;;5036346;28;20655;-52
2021/03/14 02:55:11;;;;;;;7.10;3.65;;;;;;;;;;5037760;28;20229;-51
2021/03/14 02:57:38;;;;;;;4.65;3.70;;;;;;;;;;5037130;28;20269;-53
2021/03/14 03:00:05;;;;;;;5.05;3.42;;;;;;;;;;5037090;28;20198;-53
2021/03/14 03:02:31;;;;;;;7.80;3.50;;;;;;;;;;5035748;28;20178;-53
2021/03/14 03:04:58;;;;;;;10.82;4.32;;;;;;;;;;5037956;28;20186;-53
2021/03/14 03:07:24;;;;;;;8.45;4.10;;;;;;;;;;5037844;28;20272;-57
2021/03/14 03:09:52;;;;;;;8.60;4.07;;;;;;;;;;5036907;28;20194;-55
2021/03/14 03:12:21;;;;;;;8.82;4.32;;;;;;;;;;5037324;28;20246;-56
2021/03/14 03:14:48;;;;;;;6.45;4.43;;;;;;;;;;5037501;28;20191;-51
2021/03/14 03:17:14;;;;;;;11.85;4.38;;;;;;;;;;5033610;28;20598;-50
2021/03/14 03:19:41;;;;;;;10.45;4.38;;;;;;;;;;5035690;28;20341;-50
2021/03/14 03:22:07;;;;;;;9.13;4.35;;;;;;;;;;5037361;28;20631;-56
2021/03/14 03:24:33;;;;;;;10.00;4.30;;;;;;;;;;5037328;28;20172;-51
2021/03/14 03:26:59;;;;;;;6.55;4.57;;;;;;;;;;5036865;28;20572;-51
2021/03/14 03:29:26;;;;;;;12.15;4.97;;;;;;;;;;5036358;28;20193;-51
2021/03/14 03:31:52;;;;;;;6.03;5.38;;;;;;;;;;5037082;28;20226;-50
2021/03/14 03:34:18;;;;;;;8.60;4.55;;;;;;;;;;5036683;28;20163;-56
2021/03/14 03:36:44;;;;;;;7.53;4.53;;;;;;;;;;5036753;28;20179;-50
2021/03/14 03:39:11;;;;;;;11.45;5.00;;;;;;;;;;5035100;28;20616;-50
2021/03/14 03:41:44;;;;;;;9.77;5.25;;;;;;;;;;5036138;28;20168;-55
2021/03/14 03:44:10;;;;;;;9.73;4.22;;;;;;;;;;5037204;28;20168;-49
2021/03/14 03:46:36;;;;;;;7.10;4.38;;;;;;;;;;5036412;28;20588;-50
2021/03/14 03:49:03;;;;;;;9.30;4.97;;;;;;;;;;5032723;28;20298;-50
2021/03/14 03:51:30;;;;;;;5.47;3.85;;;;;;;;;;5036226;28;20235;-50
2021/03/14 03:53:58;;;;;;;5.95;4.50;;;;;;;;;;5036152;28;20183;-53
2021/03/14 03:56:24;;;;;;;10.65;4.63;;;;;;;;;;5035749;28;20178;-54
2021/03/14 03:58:50;;;;;;;9.25;4.13;;;;;;;;;;5032919;28;20209;-54
2021/03/14 04:01:17;;;;;;;6.70;4.57;;;;;;;;;;5035305;28;20182;-54
2021/03/14 04:03:44;;;;;;;10.80;4.80;;;;;;;;;;5035369;28;20183;-53
2021/03/14 04:06:11;;;;;;;10.55;4.80;;;;;;;;;;5036285;28;20199;-58
2021/03/14 04:08:37;;;;;;;11.65;5.82;;;;;;;;;;5034897;28;20197;-56
2021/03/14 04:11:08;;;;;;;6.32;4.95;;;;;;;;;;5035948;28;20250;-53
2021/03/14 04:13:34;;;;;;;5.03;4.30;;;;;;;;;;5035033;28;20242;-54
2021/03/14 04:16:03;;;;;;;11.93;4.68;;;;;;;;;;5035527;28;20221;-53
2021/03/14 04:18:30;;;;;;;9.52;3.67;;;;;;;;;;5034679;28;20230;-53
2021/03/14 04:20:57;;;;;;;6.60;4.47;;;;;;;;;;5035863;28;20172;-53
2021/03/14 04:23:24;;;;;;;5.15;4.45;;;;;;;;;;5034955;28;20176;-53
2021/03/14 04:25:54;;;;;;;6.45;3.97;;;;;;;;;;5035127;28;20244;-52
2021/03/14 04:28:22;;;;;;;5.35;3.55;;;;;;;;;;5032273;28;20624;-53
2021/03/14 04:30:48;;;;;;;7.65;3.45;;;;;;;;;;5035777;28;20226;-56
2021/03/14 04:33:16;;;;;;;12.93;4.18;;;;;;;;;;5034773;28;20194;-53
2021/03/14 04:35:42;;;;;;;6.53;4.00;;;;;;;;;;5035029;28;20178;-53
2021/03/14 04:38:08;;;;;;;11.30;3.83;;;;;;;;;;5034522;28;20194;-52
2021/03/14 04:40:35;;;;;;;7.35;3.78;;;;;;;;;;5035030;28;20210;-52
2021/03/14 04:43:02;;;;;;;3.95;3.13;;;;;;;;;;5034568;28;20685;-53
2021/03/14 04:45:28;;;;;;;9.85;3.90;;;;;;;;;;5034586;28;20213;-53
2021/03/14 04:47:54;;;;;;;4.82;3.30;;;;;;;;;;5034653;28;20207;-51
2021/03/14 04:50:23;;;;;;;5.20;3.30;;;;;;;;;;5034994;28;20172;-52
2021/03/14 04:52:50;;;;;;;16.60;4.20;;;;;;;;;;5035371;28;20402;-54
2021/03/14 04:55:17;;;;;;;3.92;3.13;;;;;;;;;;5034962;28;20176;-53
2021/03/14 04:57:43;;;;;;;10.80;3.80;;;;;;;;;;5031438;28;20181;-52
2021/03/14 05:00:11;;;;;;;15.90;3.83;;;;;;;;;;5034274;28;20643;-54
2021/03/14 05:02:40;;;;;;;5.10;3.70;;;;;;;;;;5033850;28;20195;-53
2021/03/14 05:05:06;;;;;;;10.30;4.25;;;;;;;;;;5035174;28;20255;-53
2021/03/14 05:07:33;;;;;;;6.78;3.70;;;;;;;;;;5034320;28;20290;-58
2021/03/14 05:10:00;;;;;;;10.30;3.95;;;;;;;;;;5034510;28;20171;-53
2021/03/14 05:12:26;;;;;;;5.35;3.38;;;;;;;;;;5034635;28;20233;-53
2021/03/14 05:14:53;;;;;;;5.93;3.88;;;;;;;;;;5034884;28;20244;-52
2021/03/14 05:17:19;;;;;;;10.70;3.40;;;;;;;;;;5034530;28;20301;-53
2021/03/14 05:19:45;;;;;;;6.13;3.35;;;;;;;;;;5034553;28;20223;-53
2021/03/14 05:22:11;;;;;;;22.35;5.18;;;;;;;;;;5034765;28;20202;-53
2021/03/14 05:24:38;;;;;;;8.55;3.92;;;;;;;;;;5034420;28;20164;-53
2021/03/14 05:27:05;;;;;;;6.40;4.10;;;;;;;;;;5030271;28;20204;-54
2021/03/14 05:29:31;;;;;;;8.93;3.90;;;;;;;;;;5034688;28;20265;-53
2021/03/14 05:31:58;;;;;;;6.15;3.70;;;;;;;;;;5034679;28;20168;-54
2021/03/14 05:34:24;;;;;;;9.60;4.00;;;;;;;;;;5033807;28;20179;-53
2021/03/14 05:36:51;;;;;;;5.28;3.90;;;;;;;;;;5034417;28;20230;-53
2021/03/14 05:39:17;;;;;;;9.00;3.95;;;;;;;;;;5034238;28;20199;-53
2021/03/14 05:41:43;;;;;;;8.68;5.10;;;;;;;;;;5034286;28;20171;-52
2021/03/14 05:44:10;;;;;;;5.30;4.30;;;;;;;;;;5034591;28;20188;-54
2021/03/14 05:46:36;;;;;;;10.60;5.60;;;;;;;;;;5033937;28;20209;-53
2021/03/14 05:49:03;;;;;;;11.93;4.35;;;;;;;;;;5033984;28;20187;-53
2021/03/14 05:51:30;;;;;;;8.95;3.78;;;;;;;;;;5033979;28;20222;-52
2021/03/14 05:53:56;;;;;;;6.78;3.88;;;;;;;;;;5034260;28;20725;-53
2021/03/14 05:56:23;;;;;;;16.10;4.75;;;;;;;;;;5033242;28;20205;-53
2021/03/14 05:58:52;;;;;;;4.40;3.85;;;;;;;;;;5029916;28;20203;-53
2021/03/14 06:01:20;;;;;;;7.35;5.05;;;;;;;;;;5032959;28;20638;-61
2021/03/14 06:03:46;;;;;;;10.73;4.60;;;;;;;;;;5034299;28;20193;-53
2021/03/14 06:06:14;;;;;;;10.18;4.38;;;;;;;;;;5034119;28;20195;-53
2021/03/14 06:08:41;;;;;;;16.42;4.93;;;;;;;;;;5033073;28;20187;-62
2021/03/14 06:11:08;;;;;;;7.57;4.07;;;;;;;;;;5033389;28;20282;-54
2021/03/14 06:13:34;;;;;;;6.75;4.68;;;;;;;;;;5034344;28;20586;-54
2021/03/14 06:16:00;;;;;;;11.40;4.68;;;;;;;;;;5033639;28;20195;-53
2021/03/14 06:18:27;;;;;;;9.38;4.68;;;;;;;;;;5033081;28;20246;-55
2021/03/14 06:20:53;;;;;;;7.82;4.93;;;;;;;;;;5033518;28;20182;-53
2021/03/14 06:23:20;;;;;;;8.18;4.55;;;;;;;;;;5033942;28;20171;-54
2021/03/14 06:25:47;;;;;;;10.18;6.03;;;;;;;;;;5033303;28;20221;-53
2021/03/14 06:28:13;;;;;;;12.90;5.03;;;;;;;;;;5030117;28;20206;-53
2021/03/14 06:30:40;;;;;;;9.77;4.97;;;;;;;;;;5033353;28;20670;-53
2021/03/14 06:33:09;;;;;;;5.82;5.20;;;;;;;;;;5033510;28;20191;-57
2021/03/14 06:35:38;;;;;;;10.68;5.38;;;;;;;;;;5033312;28;20639;-53
2021/03/14 06:38:36;;;;;;;14.23;5.68;;;;;;;;;;5033365;28;20192;-54
2021/03/14 06:41:02;;;;;;;12.25;5.90;;;;;;;;;;4999783;28;20190;-54
2021/03/14 06:43:35;;;;;;;7.27;6.07;;;;;;;;;;5033584;28;20178;-52
2021/03/14 06:46:17;;;;;;;10.43;6.57;;;;;;;;;;5033185;28;20449;-53
2021/03/14 06:48:43;;;;;;;10.02;5.25;;;;;;;;;;5032816;28;20195;-56
2021/03/14 06:51:09;;;;;;;13.75;6.32;;;;;;;;;;5033810;28;20175;-53
2021/03/14 06:53:35;;;;;;;10.98;5.38;;;;;;;;;;5033443;28;20168;-53
2021/03/14 06:56:05;;;;;;;9.53;7.03;;;;;;;;;;5033015;28;20164;-53
2021/03/14 06:58:32;;;;;;;11.52;6.57;;;;;;;;;;5030824;28;20470;-54
2021/03/14 07:01:13;;;;;;;16.15;6.95;;;;;;;;;;5033274;28;20251;-58
2021/03/14 07:03:41;;;;;;;13.45;7.15;;;;;;;;;;5033756;28;20625;-53
2021/03/14 07:06:13;;;;;;;10.13;6.15;;;;;;;;;;5033066;28;20269;-53
2021/03/14 07:08:40;;;;;;;9.00;6.63;;;;;;;;;;5032800;28;20723;-54
2021/03/14 07:11:06;;;;;;;10.63;6.57;;;;;;;;;;5033231;28;20179;-60
2021/03/14 07:13:32;;;;;;;9.95;6.93;;;;;;;;;;5034619;28;20209;-53
2021/03/14 07:15:59;;;;;;;17.03;7.03;;;;;;;;;;5036733;28;20250;-53
2021/03/14 07:18:26;;;;;;;11.35;6.13;;;;;;;;;;5035775;28;20508;-53
2021/03/14 07:20:52;;;;;;;7.60;6.80;;;;;;;;;;5036822;28;20167;-52
2021/03/14 07:23:18;;;;;;;15.40;7.60;;;;;;;;;;5036149;28;20538;-53
2021/03/14 07:25:45;;;;;;;13.50;6.73;;;;;;;;;;5036874;28;20163;-52
2021/03/14 07:28:12;;;;;;;14.15;7.45;;;;;;;;;;5032403;28;20485;-53
2021/03/14 07:30:38;;;;;;;12.10;7.97;;;;;;;;;;5036660;28;20196;-53
2021/03/14 07:33:05;;;;;;;10.88;7.18;;;;;;;;;;5036485;28;20171;-54
2021/03/14 07:35:31;;;;;;;17.85;6.45;;;;;;;;;;5036309;28;20176;-53
2021/03/14 07:37:57;;;;;;;10.63;5.68;;;;;;;;;;5036373;28;20183;-55
2021/03/14 07:40:25;;;;;;;8.48;5.72;;;;;;;;;;5035925;28;20179;-61
2021/03/14 07:42:55;;;;;;;10.30;6.82;;;;;;;;;;5036505;28;20179;-52
2021/03/14 07:45:21;;;;;;;11.82;6.90;;;;;;;;;;5036050;28;20175;-53
2021/03/14 07:47:47;;;;;;;9.43;7.10;;;;;;;;;;5035352;28;20208;-53
2021/03/14 07:50:33;;;;;;;12.45;6.03;;;;;;;;;;5036650;28;20179;-52
2021/03/14 07:53:10;;;;;;;11.93;7.10;;;;;;;;;;5035781;28;20622;-53
2021/03/14 07:55:36;;;;;;;13.25;7.30;;;;;;;;;;5034417;28;20533;-51
2021/03/14 07:58:03;;;;;;;7.65;6.85;;;;;;;;;;5032504;28;20646;-52
2021/03/14 08:00:30;;;;;;;11.15;8.40;;;;;;;;;;5035460;28;20655;-53
2021/03/14 08:02:57;;;;;;;16.48;8.50;;;;;;;;;;5035297;28;20186;-53
2021/03/14 08:05:44;;;;;;;14.40;8.05;;;;;;;;;;5035511;28;20171;-53
2021/03/14 08:08:10;;;;;;;13.15;9.77;;;;;;;;;;5035059;28;20738;-53
2021/03/14 08:10:42;;;;;;;14.60;9.30;;;;;;;;;;5035472;28;20254;-54
2021/03/14 08:13:14;;;;;;;17.48;9.20;;;;;;;;;;5035579;28;20182;-52
2021/03/14 08:15:40;;;;;;;16.67;9.95;;;;;;;;;;5034976;28;20254;-53
2021/03/14 08:18:06;;;;;;;23.05;10.85;;;;;;;;;;5034694;28;20195;-53
2021/03/14 08:20:38;;;;;;;14.15;10.65;;;;;;;;;;5035304;28;20308;-60
2021/03/14 08:23:05;;;;;;;18.63;11.18;;;;;;;;;;5035684;28;20643;-53
2021/03/14 08:25:36;;;;;;;17.52;9.80;;;;;;;;;;5032136;28;20197;-52
2021/03/14 08:28:21;;;;;;;12.98;9.60;;;;;;;;;;5021248;28;20293;-52
2021/03/14 08:30:48;;;;;;;11.70;7.45;;;;;;;;;;5019215;28;20186;-50
2021/03/14 08:33:33;;;;;;;7.28;6.25;;;;;;;;;;5016555;28;20604;-52
2021/03/14 08:36:04;;;;;;;7.70;6.07;;;;;;;;;;5016460;28;20172;-51
2021/03/14 08:38:44;;;;;;;8.48;4.97;;;;;;;;;;5016501;28;20893;-53
2021/03/14 08:41:29;;;;;;;8.88;5.55;;;;;;;;;;5015606;28;20202;-53
2021/03/14 08:43:56;;;;;;;4.43;4.13;;;;;;;;;;5015980;28;20176;-54
2021/03/14 08:46:41;;;;;;;4.80;4.40;;;;;;;;;;5015341;28;20207;-54
2021/03/14 08:49:08;;;;;;;4.13;3.72;;;;;;;;;;5015245;28;20188;-53
2021/03/14 08:51:34;;;;;;;4.90;4.40;;;;;;;;;;5015402;28;20168;-53
2021/03/14 08:54:00;;;;;;;4.40;4.00;;;;;;;;;;5015188;28;20222;-53
2021/03/14 08:56:26;;;;;;;4.20;3.90;;;;;;;;;;5022803;28;20558;-54
2021/03/14 08:59:11;;;;;;;7.00;4.90;;;;;;;;;;5034294;28;20509;-56
2021/03/14 09:01:38;;;;;;;4.80;4.00;;;;;;;;;;5034662;28;20456;-53
2021/03/14 09:04:10;;;;;;;5.50;5.00;;;;;;;;;;5034775;28;20168;-53
2021/03/14 09:06:37;;;;;;;5.15;4.75;;;;;;;;;;5034065;28;20258;-54
2021/03/14 09:09:06;;;;;;;5.93;4.57;;;;;;;;;;5034103;28;20215;-53
2021/03/14 09:11:39;;;;;;;6.13;5.25;;;;;;;;;;5034481;28;20171;-53
2021/03/14 09:14:23;;;;;;;8.50;4.88;;;;;;;;;;5034145;28;20576;-56
2021/03/14 09:16:50;;;;;;;6.00;5.50;;;;;;;;;;5034165;28;20177;-52
2021/03/14 09:19:27;;;;;;;6.68;5.95;;;;;;;;;;5033992;28;20190;-53
2021/03/14 09:21:54;;;;;;;6.35;5.53;;;;;;;;;;5034241;28;20175;-53
2021/03/14 09:24:24;;;;;;;14.93;6.32;;;;;;;;;;5034619;28;20175;-56
2021/03/14 09:26:57;;;;;;;18.48;6.38;;;;;;;;;;5030933;28;20203;-53
2021/03/14 09:29:34;;;;;;;9.80;6.05;;;;;;;;;;5034248;28;20191;-53
2021/03/14 09:32:00;;;;;;;7.15;6.05;;;;;;;;;;5034290;28;20178;-53
2021/03/14 09:34:27;;;;;;;6.53;5.70;;;;;;;;;;5033961;28;20167;-52
2021/03/14 09:36:53;;;;;;;9.88;7.47;;;;;;;;;;5032883;28;20262;-54
2021/03/14 09:39:26;;;;;;;7.50;6.40;;;;;;;;;;5033938;28;20655;-53
2021/03/14 09:41:52;;;;;;;9.52;7.00;;;;;;;;;;5034393;28;20176;-59
2021/03/14 09:44:19;;;;;;;7.85;6.93;;;;;;;;;;5033762;28;20180;-53
2021/03/14 09:46:58;;;;;;;9.55;6.43;;;;;;;;;;5033840;28;20678;-53
2021/03/14 09:49:24;;;;;;;10.02;7.93;;;;;;;;;;5033251;28;20191;-62
2021/03/14 09:51:52;;;;;;;8.95;8.05;;;;;;;;;;5033478;28;20170;-52
2021/03/14 09:54:18;;;;;;;12.10;8.85;;;;;;;;;;5034078;28;20166;-53
2021/03/14 09:56:49;;;;;;;11.30;8.77;;;;;;;;;;5029631;28;20585;-53
2021/03/14 09:59:19;;;;;;;9.50;7.47;;;;;;;;;;5031417;28;20207;-53
2021/03/14 10:01:49;;;;;;;9.20;7.38;;;;;;;;;;5034169;28;20191;-53
2021/03/14 10:04:15;;;;;;;9.63;7.70;;;;;;;;;;5034045;28;20513;-51
2021/03/14 10:06:41;;;;;;;11.57;8.90;;;;;;;;;;5033970;28;20200;-50
2021/03/14 10:09:07;;;;;;;12.95;9.95;;;;;;;;;;5033652;28;20194;-51
2021/03/14 10:11:33;;;;;;;8.48;7.55;;;;;;;;;;5034627;28;20172;-50
2021/03/14 10:14:00;;;;;;;9.98;8.00;;;;;;;;;;5026564;28;20227;-51
2021/03/14 10:16:26;;;;;;;7.63;5.93;;;;;;;;;;5007348;28;20211;-51
2021/03/14 10:18:57;;;;;;;8.63;6.40;;;;;;;;;;5014121;28;20184;-51
2021/03/14 10:21:27;;;;;;;12.43;6.68;;;;;;;;;;5014926;28;20207;-50
2021/03/14 10:24:13;;;;;;;8.65;6.07;;;;;;;;;;5014392;28;20176;-50
2021/03/14 10:26:58;;;;;;;8.80;6.95;;;;;;;;;;5027014;28;20217;-51
2021/03/14 10:29:34;;;;;;;7.07;6.18;;;;;;;;;;5033728;28;20180;-52
2021/03/14 10:32:00;;;;;;;10.43;7.03;;;;;;;;;;5034609;28;20163;-51
2021/03/14 10:34:26;;;;;;;12.10;7.00;;;;;;;;;;5032396;28;20233;-51
2021/03/14 10:36:53;;;;;;;9.27;7.78;;;;;;;;;;5034258;28;20175;-51
2021/03/14 10:39:26;;;;;;;8.95;7.60;;;;;;;;;;5034267;28;20192;-51
2021/03/14 10:41:52;;;;;;;7.22;6.53;;;;;;;;;;5034275;28;20179;-51
2021/03/14 10:44:22;;;;;;;10.65;7.13;;;;;;;;;;5033723;28;20229;-51
2021/03/14 10:46:50;;;;;;;11.23;8.30;;;;;;;;;;5030475;28;20199;-51
2021/03/14 10:49:16;;;;;;;11.40;8.55;;;;;;;;;;5037404;28;20184;-51
2021/03/14 10:51:42;;;;;;;9.13;8.20;;;;;;;;;;5038483;28;20168;-52
2021/03/14 10:54:13;;;;;;;12.45;8.65;;;;;;;;;;5038665;28;20406;-51
2021/03/14 10:56:40;;;;;;;10.98;9.32;;;;;;;;;;5038859;28;20873;-51
2021/03/14 10:59:21;;;;;;;13.55;9.30;;;;;;;;;;5037722;28;20196;-51
2021/03/14 11:01:49;;;;;;;20.10;10.07;;;;;;;;;;5037624;28;20196;-52
2021/03/14 11:04:15;;;;;;;19.27;10.00;;;;;;;;;;5038387;28;20418;-51
2021/03/14 11:06:41;;;;;;;16.33;10.37;;;;;;;;;;5036683;28;20196;-52
2021/03/14 11:09:09;;;;;;;17.67;10.13;;;;;;;;;;5035479;28;20493;-53
2021/03/14 11:11:36;;;;;;;14.53;11.00;;;;;;;;;;5035246;28;20403;-54
2021/03/14 11:14:22;;;;;;;12.55;9.35;;;;;;;;;;5035484;28;20480;-50
2021/03/14 11:17:02;;;;;;;14.50;10.05;;;;;;;;;;5031761;28;20317;-51
2021/03/14 11:19:28;;;;;;;17.38;11.95;;;;;;;;;;5034518;28;20203;-51
2021/03/14 11:21:54;;;;;;;19.30;12.60;;;;;;;;;;5017193;28;20177;-50
2021/03/14 11:24:20;;;;;;;17.60;12.50;;;;;;;;;;5015177;28;20834;-51
2021/03/14 11:26:46;;;;;;;17.73;12.65;;;;;;;;;;5014747;28;20458;-51
2021/03/14 11:29:12;;;;;;;18.07;12.63;;;;;;;;;;5015435;28;20200;-52
2021/03/14 11:31:38;;;;;;;23.07;13.60;;;;;;;;;;5015731;28;20908;-51
2021/03/14 11:34:04;;;;;;;18.23;13.37;;;;;;;;;;5017381;28;20435;-50
2021/03/14 11:36:30;;;;;;;19.70;13.37;;;;;;;;;;5016031;28;20425;-49
2021/03/14 11:38:56;;;;;;;19.97;14.30;;;;;;;;;;5016332;28;20492;-49
2021/03/14 11:41:22;;;;;;;20.70;15.90;;;;;;;;;;5015757;28;20417;-48
2021/03/14 11:43:48;;;;;;;24.07;16.20;;;;;;;;;;5014137;28;20419;-49
2021/03/14 11:46:15;;;;;;;18.40;15.00;;;;;;;;;;5025331;28;20451;-50
2021/03/14 11:48:44;;;;;;;21.23;15.37;;;;;;;;;;5033656;28;20427;-52
2021/03/14 11:51:10;;;;;;;17.07;13.93;;;;;;;;;;5019920;28;20461;-52
2021/03/14 11:53:36;;;;;;;22.20;17.57;;;;;;;;;;5013316;28;20402;-52
2021/03/14 11:56:01;;;;;;;20.83;16.93;;;;;;;;;;5014545;28;20430;-52
2021/03/14 11:58:27;;;;;;;20.80;16.70;;;;;;;;;;5013541;28;20426;-53
2021/03/14 12:00:53;;;;;;;19.67;15.50;;;;;;;;;;5013005;28;20465;-53
2021/03/14 12:03:19;;;;;;;19.33;16.53;;;;;;;;;;5013844;28;20484;-52
2021/03/14 12:05:45;;;;;;;23.20;17.30;;;;;;;;;;5013689;28;20398;-52
2021/03/14 12:08:11;;;;;;;21.27;16.27;;;;;;;;;;5013665;28;21033;-49
2021/03/14 12:10:37;;;;;;;22.07;16.60;;;;;;;;;;5013855;28;20809;-50
2021/03/14 12:13:03;;;;;;;17.97;15.00;;;;;;;;;;5013795;28;20412;-56
2021/03/14 12:15:29;;;;;;;19.10;16.23;;;;;;;;;;5020268;28;20441;-50
2021/03/14 12:17:55;;;;;;;21.27;15.70;;;;;;;;;;5032701;28;20421;-53
2021/03/14 12:20:21;;;;;;;19.83;16.23;;;;;;;;;;5032472;28;20557;-54
2021/03/14 12:22:47;;;;;;;22.67;15.97;;;;;;;;;;5032327;28;20398;-54
2021/03/14 12:25:14;;;;;;;21.20;14.47;;;;;;;;;;5032338;28;20421;-54
2021/03/14 12:27:40;;;;;;;16.93;15.10;;;;;;;;;;5032017;28;20450;-50
2021/03/14 12:30:06;;;;;;;16.67;14.57;;;;;;;;;;5037504;28;20402;-52
2021/03/14 12:32:32;;;;;;;18.40;14.63;;;;;;;;;;5044145;28;20406;-52
2021/03/14 12:34:58;;;;;;;17.33;14.90;;;;;;;;;;5043863;28;20460;-52
2021/03/14 12:37:24;;;;;;;20.67;15.33;;;;;;;;;;5043292;28;20410;-51
2021/03/14 12:39:50;;;;;;;17.53;13.53;;;;;;;;;;5044064;28;20460;-52
2021/03/14 12:42:17;;;;;;;18.57;10.90;;;;;;;;;;5042572;28;20410;-50
2021/03/14 12:44:44;;;;;;;14.17;11.13;;;;;;;;;;5038172;28;20433;-52
2021/03/14 12:47:10;;;;;;;15.20;12.30;;;;;;;;;;5034735;28;20466;-52
2021/03/14 12:49:36;;;;;;;15.00;12.10;;;;;;;;;;5023285;28;20476;-50
2021/03/14 12:52:02;;;;;;;13.30;10.70;;;;;;;;;;5023805;28;20400;-52
2021/03/14 12:54:28;;;;;;;12.03;10.80;;;;;;;;;;5024209;28;20443;-51
2021/03/14 12:56:54;;;;;;;15.20;9.50;;;;;;;;;;5024039;28;20443;-52
2021/03/14 12:59:19;;;;;;;11.53;10.40;;;;;;;;;;5022151;28;20472;-51
2021/03/14 13:01:45;;;;;;;13.77;10.30;;;;;;;;;;5024563;28;20462;-52
2021/03/14 13:04:12;;;;;;;10.23;9.23;;;;;;;;;;5024795;28;20420;-51
2021/03/14 13:06:38;;;;;;;12.03;10.73;;;;;;;;;;5022839;28;20466;-52
2021/03/14 13:09:04;;;;;;;11.40;10.27;;;;;;;;;;5024974;28;20454;-52
2021/03/14 13:11:30;;;;;;;12.10;10.77;;;;;;;;;;5024991;28;20396;-52
2021/03/14 13:13:56;;;;;;;10.60;9.50;;;;;;;;;;5024527;28;20413;-51
2021/03/14 13:16:22;;;;;;;11.73;10.50;;;;;;;;;;5042628;28;20446;-51
2021/03/14 13:18:48;;;;;;;11.73;10.37;;;;;;;;;;5044937;28;20421;-51
2021/03/14 13:21:14;;;;;;;10.80;9.80;;;;;;;;;;5045373;28;20430;-52
2021/03/14 13:23:40;;;;;;;9.30;8.40;;;;;;;;;;5044591;28;20406;-51
2021/03/14 13:26:09;;;;;;;10.67;9.70;;;;;;;;;;5044958;28;20414;-52
2021/03/14 13:28:35;;;;;;;10.90;9.83;;;;;;;;;;5002953;28;20427;-52
2021/03/14 13:31:01;;;;;;;10.33;9.23;;;;;;;;;;5003077;28;20404;-52
2021/03/14 13:33:30;;;;;;;10.37;9.27;;;;;;;;;;5003405;28;20419;-51
2021/03/14 13:35:56;;;;;;;8.40;7.60;;;;;;;;;;5004780;28;20804;-51
2021/03/14 13:38:23;;;;;;;12.67;8.20;;;;;;;;;;5004922;28;20488;-51
2021/03/14 13:40:50;;;;;;;8.97;8.07;;;;;;;;;;5005644;28;20551;-52
2021/03/14 13:43:16;;;;;;;7.83;6.90;;;;;;;;;;5006085;28;20465;-51
2021/03/14 13:45:42;;;;;;;10.27;8.07;;;;;;;;;;5037075;28;20432;-53
2021/03/14 13:48:08;;;;;;;9.03;7.63;;;;;;;;;;5044342;28;20466;-51
2021/03/14 13:50:34;;;;;;;8.47;7.70;;;;;;;;;;5044165;28;20399;-53
2021/03/14 13:53:00;;;;;;;8.63;7.73;;;;;;;;;;5044422;28;20762;-52
2021/03/14 13:55:26;;;;;;;9.70;8.60;;;;;;;;;;5040859;28;20409;-54
2021/03/14 13:57:52;;;;;;;10.10;8.53;;;;;;;;;;5039918;28;20414;-54
2021/03/14 14:00:19;;;;;;;10.40;9.40;;;;;;;;;;5040290;28;20824;-54
2021/03/14 14:02:46;;;;;;;12.73;8.87;;;;;;;;;;5040409;28;20426;-53
2021/03/14 14:05:13;;;;;;;7.80;7.10;;;;;;;;;;5040223;28;20418;-53
2021/03/14 14:07:39;;;;;;;7.13;6.53;;;;;;;;;;5041078;28;20454;-54
2021/03/14 14:10:06;;;;;;;8.30;7.50;;;;;;;;;;5040212;28;20400;-54
2021/03/14 14:12:32;;;;;;;9.10;8.20;;;;;;;;;;5041011;28;20421;-54
2021/03/14 14:14:58;;;;;;;8.30;7.60;;;;;;;;;;5040217;28;20445;-55
2021/03/14 14:17:24;;;;;;;10.50;8.60;;;;;;;;;;5042693;28;20406;-52
2021/03/14 14:19:51;;;;;;;8.63;7.80;;;;;;;;;;5043087;28;20480;-51
2021/03/14 14:22:17;;;;;;;8.53;7.60;;;;;;;;;;5031402;28;20499;-51
2021/03/14 14:24:43;;;;;;;8.57;6.90;;;;;;;;;;5029028;28;20422;-50
2021/03/14 14:27:09;;;;;;;9.17;6.67;;;;;;;;;;5022927;28;20818;-49
2021/03/14 14:29:36;;;;;;;5.87;5.37;;;;;;;;;;5014284;28;20437;-49
2021/03/14 14:32:02;;;;;;;5.80;5.30;;;;;;;;;;5014672;28;20409;-50
2021/03/14 14:34:28;;;;;;;5.60;4.47;;;;;;;;;;5014917;28;20414;-51
2021/03/14 14:36:54;;;;;;;5.30;4.90;;;;;;;;;;5015498;28;20444;-54
2021/03/14 14:39:20;;;;;;;5.80;5.40;;;;;;;;;;5015163;28;20456;-55